Time;durP1;ratioP1;P1;durP2;ratioP2;P2;SDS_P1;SDS_P2;PMS_P1;PMS_P2;Temp;Humidity;BMP_temperature;BMP_pressure;BME280_temperature;BME280_humidity;BME280_pressure;Samples;Min_cycle;Max_cycle;Signal;HPM_P1;HPM_P2
2023/05/01 00:01:22;;;;;;;;;;;;;;;3.48;63.47;99445.05;135620;1279;22505;-65
2023/05/01 00:04:25;;;;;;;;;;;;;;;3.39;63.38;99449.24;131337;1281;5384169;-68
2023/05/01 00:07:29;;;;;;;;;;;;;;;3.35;63.52;99449.34;135573;1280;22525;-67
2023/05/01 00:10:32;;;;;;;;;;;;;;;3.20;64.32;99448.95;135603;1280;22533;-66
2023/05/01 00:13:35;;;;;;;;;;;;;;;3.11;64.88;99446.70;135625;1280;22504;-66
2023/05/01 00:16:38;;;;;;;;;;;;;;;2.99;64.71;99447.63;135634;1280;22526;-66
2023/05/01 00:19:41;;;;;;;;;;;;;;;3.02;64.73;99443.44;135611;1280;22500;-65
2023/05/01 00:22:44;;;;;;;;;;;;;;;3.01;64.37;99445.54;135626;1280;22501;-65
2023/05/01 00:25:50;;;;;;;;;;;;;;;3.00;64.60;99444.02;135622;1280;22504;-65
2023/05/01 00:28:53;;;;;;;;;;;;;;;2.97;64.58;99443.02;135568;1280;22530;-67
2023/05/01 00:31:55;;;;;;;;;;;;;;;2.98;64.87;99447.33;135633;1278;22504;-67
2023/05/01 00:34:58;;;;;;;;;;;;;;;2.96;64.94;99456.52;135354;1280;22505;-66
2023/05/01 00:38:01;;;;;;;;;;;;;;;2.96;65.33;99456.36;135571;1280;22497;-65
2023/05/01 00:41:03;;;;;;;;;;;;;;;2.91;65.91;99459.05;135251;1280;24433;-65
2023/05/01 00:44:07;;;;;;;;;;;;;;;2.87;66.38;99455.14;135610;1280;22494;-65
2023/05/01 00:47:18;;;;;;;;;;;;;;;2.79;67.10;99456.67;135591;1280;22500;-66
2023/05/01 00:50:21;;;;;;;;;;;;;;;2.82;67.33;99452.13;135576;1280;22515;-67
2023/05/01 00:53:25;;;;;;;;;;;;;;;2.75;68.25;99454.32;135560;1280;22516;-66
2023/05/01 00:56:28;;;;;;;;;;;;;;;2.65;68.15;99459.00;135599;1280;22508;-66
2023/05/01 00:59:30;;;;;;;;;;;;;;;2.70;67.85;99455.98;135584;1280;25315;-66
2023/05/01 01:02:33;;;;;;;;;;;;;;;2.62;67.88;99460.46;135605;1279;22536;-67
2023/05/01 01:05:35;;;;;;;;;;;;;;;2.60;67.69;99460.83;135627;1280;24453;-67
2023/05/01 01:08:38;;;;;;;;;;;;;;;2.56;67.67;99458.98;135632;1280;22682;-66
2023/05/01 01:11:41;;;;;;;;;;;;;;;2.60;67.33;99457.20;135595;1279;22505;-67
2023/05/01 01:14:44;;;;;;;;;;;;;;;2.59;67.32;99454.45;135587;1279;22506;-66
2023/05/01 01:17:46;;;;;;;;;;;;;;;2.56;67.45;99456.58;135604;1280;22479;-66
2023/05/01 01:20:49;;;;;;;;;;;;;;;2.54;67.22;99452.64;135620;1279;22519;-66
2023/05/01 01:23:52;;;;;;;;;;;;;;;2.48;67.59;99454.31;135644;1279;22515;-66
2023/05/01 01:26:55;;;;;;;;;;;;;;;2.44;67.84;99452.13;135602;1278;22525;-65
2023/05/01 01:29:58;;;;;;;;;;;;;;;2.42;67.72;99453.38;135605;1279;22502;-66
2023/05/01 01:33:02;;;;;;;;;;;;;;;2.40;67.62;99453.07;135639;1279;22503;-67
2023/05/01 01:36:04;;;;;;;;;;;;;;;2.36;67.69;99455.20;135359;1280;22490;-66
2023/05/01 01:39:08;;;;;;;;;;;;;;;2.34;67.86;99453.70;135299;1280;22551;-65
2023/05/01 01:42:10;;;;;;;;;;;;;;;2.33;67.83;99458.71;135248;1266;24334;-65
2023/05/01 01:45:13;;;;;;;;;;;;;;;2.34;67.66;99457.31;135316;1280;22515;-65
2023/05/01 01:48:16;;;;;;;;;;;;;;;2.28;67.77;99459.98;135525;1280;22506;-65
2023/05/01 01:51:19;;;;;;;;;;;;;;;2.22;67.80;99459.07;135544;1264;22651;-65
2023/05/01 01:54:22;;;;;;;;;;;;;;;2.23;67.67;99459.55;135248;1273;22529;-65
2023/05/01 01:57:25;;;;;;;;;;;;;;;2.18;67.86;99459.14;135331;1280;22585;-66
2023/05/01 02:00:27;;;;;;;;;;;;;;;2.15;67.64;99460.39;135246;1280;22496;-65
2023/05/01 02:03:30;;;;;;;;;;;;;;;2.22;67.47;99454.58;135626;1280;22511;-65
2023/05/01 02:06:33;;;;;;;;;;;;;;;2.20;67.61;99455.31;135583;1280;22507;-65
2023/05/01 02:09:35;;;;;;;;;;;;;;;2.17;67.51;99453.48;135605;1279;25229;-65
2023/05/01 02:12:38;;;;;;;;;;;;;;;2.16;67.31;99450.90;135562;1277;22524;-66
2023/05/01 02:15:41;;;;;;;;;;;;;;;2.12;67.46;99445.77;135309;1280;24380;-66
2023/05/01 02:18:44;;;;;;;;;;;;;;;2.12;67.28;99442.84;135576;1280;22504;-67
2023/05/01 02:21:47;;;;;;;;;;;;;;;2.09;67.37;99438.92;135573;1280;22612;-66
2023/05/01 02:24:51;;;;;;;;;;;;;;;2.06;67.73;99438.29;135658;1280;22508;-65
2023/05/01 02:27:54;;;;;;;;;;;;;;;2.02;68.29;99433.17;135584;1280;22612;-65
2023/05/01 02:30:57;;;;;;;;;;;;;;;2.00;68.04;99433.73;135620;1262;22528;-65
2023/05/01 02:33:59;;;;;;;;;;;;;;;1.96;68.39;99432.75;135639;1280;24265;-66
2023/05/01 02:37:02;;;;;;;;;;;;;;;1.95;68.72;99430.35;135621;1280;24261;-64
2023/05/01 02:40:06;;;;;;;;;;;;;;;2.00;68.21;99431.32;135602;1280;22539;-66
2023/05/01 02:43:09;;;;;;;;;;;;;;;1.84;68.90;99428.63;135586;1280;24373;-64
2023/05/01 02:46:11;;;;;;;;;;;;;;;1.72;69.33;99422.79;135638;1280;22498;-65
2023/05/01 02:49:15;;;;;;;;;;;;;;;1.68;69.72;99428.20;135589;1280;22898;-64
2023/05/01 02:52:17;;;;;;;;;;;;;;;1.59;70.02;99426.60;135581;1280;22487;-65
2023/05/01 02:55:20;;;;;;;;;;;;;;;1.55;70.32;99423.20;135607;1280;22510;-67
2023/05/01 02:58:23;;;;;;;;;;;;;;;1.49;71.06;99424.50;135309;1280;23892;-66
2023/05/01 03:01:26;;;;;;;;;;;;;;;1.59;70.55;99426.60;135609;1280;22506;-67
2023/05/01 03:04:29;;;;;;;;;;;;;;;1.57;70.58;99428.52;135632;1280;22502;-66
2023/05/01 03:07:34;;;;;;;;;;;;;;;1.45;71.38;99430.06;135618;1280;22497;-65
2023/05/01 03:10:36;;;;;;;;;;;;;;;1.51;71.01;99433.43;135586;1280;22625;-65
2023/05/01 03:13:39;;;;;;;;;;;;;;;1.60;70.46;99437.61;135581;1280;22527;-66
2023/05/01 03:16:43;;;;;;;;;;;;;;;1.60;71.04;99440.20;135622;1280;22517;-66
2023/05/01 03:19:45;;;;;;;;;;;;;;;1.62;71.18;99441.89;135611;1280;22512;-66
2023/05/01 03:22:48;;;;;;;;;;;;;;;1.62;71.60;99438.62;135622;1279;22510;-66
2023/05/01 03:25:53;;;;;;;;;;;;;;;1.62;71.55;99436.38;135587;1277;22530;-64
2023/05/01 03:28:56;;;;;;;;;;;;;;;1.63;71.28;99437.74;135563;1280;24231;-65
2023/05/01 03:31:59;;;;;;;;;;;;;;;1.62;70.93;99434.48;135601;1279;22567;-64
2023/05/01 03:35:02;;;;;;;;;;;;;;;1.59;72.02;99437.12;135597;1280;22540;-64
2023/05/01 03:38:05;;;;;;;;;;;;;;;1.65;72.27;99434.27;135283;1279;22517;-65
2023/05/01 03:41:08;;;;;;;;;;;;;;;1.72;71.48;99435.88;135359;1279;22583;-66
2023/05/01 03:44:11;;;;;;;;;;;;;;;1.90;70.93;99439.76;135588;1279;22501;-65
2023/05/01 03:47:13;;;;;;;;;;;;;;;1.96;71.22;99433.27;135614;1279;22492;-66
2023/05/01 03:50:16;;;;;;;;;;;;;;;2.17;70.82;99429.83;135602;1274;22513;-64
2023/05/01 03:53:21;;;;;;;;;;;;;;;2.39;70.57;99432.02;135625;1280;22512;-65
2023/05/01 03:56:24;;;;;;;;;;;;;;;2.54;70.87;99428.12;135569;1280;22506;-66
2023/05/01 03:59:27;;;;;;;;;;;;;;;2.63;70.75;99423.64;135596;1280;22504;-64
2023/05/01 04:02:31;;;;;;;;;;;;;;;2.87;69.99;99421.81;135595;1280;22501;-65
2023/05/01 04:05:34;;;;;;;;;;;;;;;3.04;69.86;99422.15;135297;1263;22510;-65
2023/05/01 04:08:44;;;;;;;;;;;;;;;3.22;69.96;99419.02;135364;1276;22513;-67
2023/05/01 04:11:48;;;;;;;;;;;;;;;3.42;69.55;99415.64;135390;1273;22576;-66
2023/05/01 04:14:51;;;;;;;;;;;;;;;3.66;69.33;99415.10;135311;1274;22531;-66
2023/05/01 04:17:55;;;;;;;;;;;;;;;3.90;69.21;99413.31;135377;1274;22504;-67
2023/05/01 04:20:58;;;;;;;;;;;;;;;4.09;69.19;99413.88;135600;1280;22504;-67
2023/05/01 04:24:01;;;;;;;;;;;;;;;4.36;69.08;99403.67;135575;1263;24218;-66
2023/05/01 04:27:04;;;;;;;;;;;;;;;4.57;68.37;99405.52;135501;1280;25338;-66
2023/05/01 04:30:07;;;;;;;;;;;;;;;4.80;68.26;99404.73;135521;1280;22534;-66
2023/05/01 04:33:11;;;;;;;;;;;;;;;5.07;67.85;99409.52;135546;1280;22505;-67
2023/05/01 04:36:14;;;;;;;;;;;;;;;5.07;69.03;99413.14;135511;1280;22509;-65
2023/05/01 04:39:18;;;;;;;;;;;;;;;5.60;67.57;99412.26;135561;1280;22527;-66
2023/05/01 04:42:21;;;;;;;;;;;;;;;6.00;66.76;99416.39;135290;1280;22944;-65
2023/05/01 04:45:25;;;;;;;;;;;;;;;6.17;66.49;99419.69;135236;1280;22505;-66
2023/05/01 04:48:28;;;;;;;;;;;;;;;5.82;69.23;99417.28;135264;1280;22511;-66
2023/05/01 04:51:32;;;;;;;;;;;;;;;6.70;67.54;99412.63;135289;1280;22508;-66
2023/05/01 04:54:35;;;;;;;;;;;;;;;7.22;66.73;99413.88;136703;1280;23102;-66
2023/05/01 04:57:38;;;;;;;;;;;;;;;7.65;66.07;99414.64;135639;1279;22563;-67
2023/05/01 05:00:43;;;;;;;;;;;;;;;8.01;65.28;99412.54;135636;1280;22502;-67
2023/05/01 05:03:47;;;;;;;;;;;;;;;8.41;65.19;99411.40;135615;1280;22609;-67
2023/05/01 05:06:50;;;;;;;;;;;;;;;8.77;64.48;99408.96;135608;1280;22559;-67
2023/05/01 05:09:53;;;;;;;;;;;;;;;9.05;64.17;99407.73;135615;1280;22581;-68
2023/05/01 05:12:58;;;;;;;;;;;;;;;9.33;64.56;99406.09;135583;1280;22506;-68
2023/05/01 05:16:02;;;;;;;;;;;;;;;9.61;63.15;99410.23;135588;1279;22641;-68
2023/05/01 05:19:05;;;;;;;;;;;;;;;9.84;62.52;99408.56;135590;1280;22505;-67
2023/05/01 05:22:11;;;;;;;;;;;;;;;10.02;62.23;99408.75;135624;1280;22498;-67
2023/05/01 05:25:15;;;;;;;;;;;;;;;10.21;61.28;99407.27;135525;1280;22507;-68
2023/05/01 05:28:18;;;;;;;;;;;;;;;10.37;61.14;99408.60;135601;1280;22554;-67
2023/05/01 05:31:22;;;;;;;;;;;;;;;10.63;60.63;99408.50;135613;1280;22500;-66
2023/05/01 05:34:25;;;;;;;;;;;;;;;10.86;60.27;99410.14;135609;1280;22524;-67
2023/05/01 05:37:29;;;;;;;;;;;;;;;10.92;60.59;99409.63;135608;1280;25240;-67
2023/05/01 05:40:33;;;;;;;;;;;;;;;11.18;60.15;99410.34;135586;1280;22499;-68
2023/05/01 05:43:37;;;;;;;;;;;;;;;11.63;59.79;99405.30;135591;1279;25262;-67
2023/05/01 05:46:43;;;;;;;;;;;;;;;12.04;58.58;99398.95;135601;1280;22512;-69
2023/05/01 05:49:47;;;;;;;;;;;;;;;12.47;56.95;99405.55;135573;1280;22660;-68
2023/05/01 05:52:51;;;;;;;;;;;;;;;12.84;55.87;99406.31;135610;1261;24212;-68
2023/05/01 05:55:53;;;;;;;;;;;;;;;13.26;54.49;99404.80;135576;1280;22510;-68
2023/05/01 05:59:01;;;;;;;;;;;;;;;13.52;54.43;99405.66;135605;1280;22504;-68
2023/05/01 06:02:05;;;;;;;;;;;;;;;13.89;53.70;99402.89;135592;1280;22502;-67
2023/05/01 06:05:09;;;;;;;;;;;;;;;14.14;53.51;99400.39;135615;1280;22504;-67
2023/05/01 06:08:12;;;;;;;;;;;;;;;14.52;53.03;99401.88;135589;1280;23855;-67
2023/05/01 06:11:16;;;;;;;;;;;;;;;14.85;52.57;99405.13;135596;1280;22547;-67
2023/05/01 06:14:19;;;;;;;;;;;;;;;15.12;51.74;99394.42;135552;1280;22507;-66
2023/05/01 06:17:22;;;;;;;;;;;;;;;15.25;50.55;99397.37;135605;1280;25343;-67
2023/05/01 06:20:26;;;;;;;;;;;;;;;15.40;49.29;99395.94;135588;1280;22508;-67
2023/05/01 06:23:29;;;;;;;;;;;;;;;15.56;48.85;99393.76;135354;1280;22511;-68
2023/05/01 06:26:32;;;;;;;;;;;;;;;15.77;48.44;99392.24;135589;1280;25301;-67
2023/05/01 06:29:36;;;;;;;;;;;;;;;16.11;48.63;99389.61;135603;1280;23436;-67
2023/05/01 06:32:40;;;;;;;;;;;;;;;16.32;46.82;99382.77;135628;1280;22517;-67
2023/05/01 06:35:44;;;;;;;;;;;;;;;16.56;46.57;99378.91;135508;1280;22548;-68
2023/05/01 06:38:48;;;;;;;;;;;;;;;16.76;45.84;99378.49;135594;1280;23861;-68
2023/05/01 06:41:51;;;;;;;;;;;;;;;16.92;45.26;99380.08;135553;1280;22620;-67
2023/05/01 06:44:55;;;;;;;;;;;;;;;17.17;44.55;99381.29;135558;1280;22548;-68
2023/05/01 06:47:58;;;;;;;;;;;;;;;17.30;43.07;99378.14;135592;1280;22632;-68
2023/05/01 06:51:02;;;;;;;;;;;;;;;17.50;43.34;99379.59;135599;1280;22539;-67
2023/05/01 06:54:06;;;;;;;;;;;;;;;17.71;43.22;99379.85;135555;1280;22515;-68
2023/05/01 06:57:09;;;;;;;;;;;;;;;18.01;43.10;99372.45;135536;1280;22509;-67
2023/05/01 07:00:12;;;;;;;;;;;;;;;18.28;41.98;99377.11;135603;1280;24366;-67
2023/05/01 07:03:16;;;;;;;;;;;;;;;18.36;41.27;99376.55;135560;1280;24175;-68
2023/05/01 07:06:19;;;;;;;;;;;;;;;18.57;41.75;99372.15;135483;1279;22526;-68
2023/05/01 07:09:23;;;;;;;;;;;;;;;18.64;40.93;99371.73;135541;1279;22547;-69
2023/05/01 07:12:28;;;;;;;;;;;;;;;18.77;41.35;99375.57;135512;1279;22510;-68
2023/05/01 07:15:33;;;;;;;;;;;;;;;18.99;41.92;99372.25;135463;1279;22523;-68
2023/05/01 07:18:37;;;;;;;;;;;;;;;19.24;40.64;99369.45;135419;1279;22503;-68
2023/05/01 07:21:40;;;;;;;;;;;;;;;19.53;40.21;99369.31;135485;1279;22516;-68
2023/05/01 07:24:43;;;;;;;;;;;;;;;19.51;40.04;99369.66;135532;1264;24209;-71
2023/05/01 07:27:46;;;;;;;;;;;;;;;19.57;40.16;99376.42;135557;1279;25495;-69
2023/05/01 07:30:50;;;;;;;;;;;;;;;19.28;38.69;99372.07;135548;1279;22518;-68
2023/05/01 07:33:55;;;;;;;;;;;;;;;19.35;39.40;99369.34;135549;1279;22523;-67
2023/05/01 07:36:58;;;;;;;;;;;;;;;19.39;39.22;99372.70;135568;1279;24237;-68
2023/05/01 07:40:01;;;;;;;;;;;;;;;19.49;37.98;99374.66;135542;1279;22526;-68
2023/05/01 07:43:06;;;;;;;;;;;;;;;19.62;37.52;99371.18;135556;1279;22546;-70
2023/05/01 07:46:11;;;;;;;;;;;;;;;19.83;37.57;99369.95;135520;1274;22500;-68
2023/05/01 07:49:15;;;;;;;;;;;;;;;19.93;36.42;99366.77;135523;1279;22505;-68
2023/05/01 07:52:18;;;;;;;;;;;;;;;19.85;36.99;99367.13;135508;1279;22499;-69
2023/05/01 07:55:24;;;;;;;;;;;;;;;19.94;36.28;99368.16;135503;1263;22530;-68
2023/05/01 07:58:27;;;;;;;;;;;;;;;20.12;36.30;99364.35;135479;1279;22530;-69
2023/05/01 08:01:32;;;;;;;;;;;;;;;20.20;35.65;99367.77;135527;1279;22518;-68
2023/05/01 08:04:35;;;;;;;;;;;;;;;20.51;34.92;99361.51;135455;1279;22507;-69
2023/05/01 08:07:39;;;;;;;;;;;;;;;20.62;35.42;99364.37;135468;1279;22501;-69
2023/05/01 08:10:42;;;;;;;;;;;;;;;20.81;34.96;99364.71;135537;1279;24024;-68
2023/05/01 08:13:46;;;;;;;;;;;;;;;20.82;35.06;99357.86;135520;1279;22662;-68
2023/05/01 08:16:53;;;;;;;;;;;;;;;20.90;35.00;99361.73;135557;1279;22564;-69
2023/05/01 08:19:56;;;;;;;;;;;;;;;20.98;35.21;99365.00;135508;1279;26604;-68
2023/05/01 08:22:59;;;;;;;;;;;;;;;21.24;34.78;99361.38;135521;1279;22534;-69
2023/05/01 08:26:04;;;;;;;;;;;;;;;21.34;34.48;99360.22;135504;1279;22522;-69
2023/05/01 08:29:07;;;;;;;;;;;;;;;21.38;33.27;99360.80;135531;1279;22532;-70
2023/05/01 08:32:09;;;;;;;;;;;;;;;21.56;33.73;99359.11;135473;1262;23636;-69
2023/05/01 08:35:13;;;;;;;;;;;;;;;21.78;33.61;99359.80;135462;1279;22520;-69
2023/05/01 08:38:16;;;;;;;;;;;;;;;21.73;33.63;99362.26;135525;1262;22504;-69
2023/05/01 08:41:19;;;;;;;;;;;;;;;21.71;33.23;99367.21;135539;1279;22609;-69
2023/05/01 08:44:22;;;;;;;;;;;;;;;21.85;33.03;99358.42;135556;1279;22505;-70
2023/05/01 08:47:25;;;;;;;;;;;;;;;22.01;32.61;99359.80;135471;1280;22530;-69
2023/05/01 08:50:27;;;;;;;;;;;;;;;21.98;31.78;99359.98;135509;1280;22508;-69
2023/05/01 08:53:30;;;;;;;;;;;;;;;22.07;32.60;99354.98;135478;1279;22512;-69
2023/05/01 08:56:34;;;;;;;;;;;;;;;22.04;32.36;99354.86;135519;1277;22616;-69
2023/05/01 08:59:38;;;;;;;;;;;;;;;22.11;32.35;99356.38;135512;1280;22991;-69
2023/05/01 09:02:42;;;;;;;;;;;;;;;22.26;31.79;99351.21;135502;1280;22549;-68
2023/05/01 09:05:45;;;;;;;;;;;;;;;22.26;31.53;99351.39;135542;1280;25311;-69
2023/05/01 09:08:49;;;;;;;;;;;;;;;22.31;31.85;99349.92;135473;1280;24218;-69
2023/05/01 09:11:52;;;;;;;;;;;;;;;22.60;31.06;99346.95;135493;1280;24196;-69
2023/05/01 09:14:57;;;;;;;;;;;;;;;22.74;31.03;99343.38;135489;1280;22560;-69
2023/05/01 09:18:00;;;;;;;;;;;;;;;22.75;30.66;99340.82;135434;1280;22616;-69
2023/05/01 09:21:04;;;;;;;;;;;;;;;22.75;30.08;99348.98;135483;1280;22548;-69
2023/05/01 09:24:08;;;;;;;;;;;;;;;22.66;29.91;99348.16;135421;1280;22500;-69
2023/05/01 09:27:12;;;;;;;;;;;;;;;22.73;30.07;99347.79;135527;1280;22536;-69
2023/05/01 09:30:15;;;;;;;;;;;;;;;22.93;29.53;99341.63;135475;1280;22508;-69
2023/05/01 09:33:18;;;;;;;;;;;;;;;22.93;29.69;99335.17;135321;1280;22515;-69
2023/05/01 09:36:23;;;;;;;;;;;;;;;22.51;30.31;99338.55;135476;1280;22512;-69
2023/05/01 09:39:27;;;;;;;;;;;;;;;22.95;29.40;99330.14;135525;1280;22513;-71
2023/05/01 09:42:29;;;;;;;;;;;;;;;23.13;28.72;99328.89;135482;1262;22532;-69
2023/05/01 09:45:34;;;;;;;;;;;;;;;22.97;28.89;99326.50;135450;1280;25451;-70
2023/05/01 09:48:38;;;;;;;;;;;;;;;23.17;28.70;99325.18;135363;1280;22557;-70
2023/05/01 09:51:43;;;;;;;;;;;;;;;23.18;29.02;99324.77;135812;1280;22570;-67
2023/05/01 09:54:47;;;;;;;;;;;;;;;23.29;28.87;99308.74;135285;1280;22527;-68
2023/05/01 09:57:51;;;;;;;;;;;;;;;23.51;29.38;99305.16;135349;1280;22510;-67
2023/05/01 10:00:54;;;;;;;;;;;;;;;23.68;29.05;99305.98;135331;1280;22500;-67
2023/05/01 10:03:59;;;;;;;;;;;;;;;23.86;29.13;99304.63;135303;1280;22783;-68
2023/05/01 10:07:03;;;;;;;;;;;;;;;23.93;28.74;99299.99;135504;1280;22554;-72
2023/05/01 10:10:06;;;;;;;;;;;;;;;23.90;28.90;99295.80;135511;1280;24379;-70
2023/05/01 10:13:09;;;;;;;;;;;;;;;23.94;28.71;99295.77;135513;1280;23882;-69
2023/05/01 10:16:12;;;;;;;;;;;;;;;23.97;28.87;99295.41;135510;1280;25368;-70
2023/05/01 10:19:16;;;;;;;;;;;;;;;24.07;27.15;99291.30;135531;1280;22513;-69
2023/05/01 10:22:20;;;;;;;;;;;;;;;23.61;27.96;99286.64;135404;1280;22496;-69
2023/05/01 10:25:24;;;;;;;;;;;;;;;23.65;28.35;99286.20;135537;1280;22504;-68
2023/05/01 10:28:27;;;;;;;;;;;;;;;23.85;27.63;99289.19;135561;1280;22530;-71
2023/05/01 10:31:31;;;;;;;;;;;;;;;24.02;28.07;99289.03;135521;1280;22520;-70
2023/05/01 10:34:34;;;;;;;;;;;;;;;24.25;27.96;99287.86;135561;1262;22512;-73
2023/05/01 10:37:37;;;;;;;;;;;;;;;24.46;27.56;99282.34;135492;1261;22504;-71
2023/05/01 10:40:40;;;;;;;;;;;;;;;24.44;26.75;99280.77;135526;1280;22503;-73
2023/05/01 10:43:51;;;;;;;;;;;;;;;24.34;26.71;99270.81;135591;1280;22585;-69
2023/05/01 10:46:54;;;;;;;;;;;;;;;24.58;26.95;99272.02;135533;1280;22514;-70
2023/05/01 10:49:57;;;;;;;;;;;;;;;24.58;27.02;99269.05;135354;1280;22557;-69
2023/05/01 10:53:01;;;;;;;;;;;;;;;24.71;27.16;99264.55;135539;1280;22523;-69
2023/05/01 10:56:05;;;;;;;;;;;;;;;25.00;26.90;99260.27;135534;1280;22566;-70
2023/05/01 10:59:11;;;;;;;;;;;;;;;24.96;26.83;99259.70;135536;1280;22508;-70
2023/05/01 11:02:14;;;;;;;;;;;;;;;24.87;25.96;99258.61;135511;1280;22509;-69
2023/05/01 11:05:29;;;;;;;;;;;;;;;25.02;25.40;99257.04;135505;1280;22543;-70
2023/05/01 11:08:33;;;;;;;;;;;;;;;25.19;25.36;99256.75;135520;1262;24212;-69
2023/05/01 11:11:35;;;;;;;;;;;;;;;25.39;25.63;99256.20;135497;1280;22512;-69
2023/05/01 11:14:39;;;;;;;;;;;;;;;25.47;24.96;99257.48;135523;1280;22561;-72
2023/05/01 11:17:42;;;;;;;;;;;;;;;25.41;24.68;99255.31;135527;1279;25382;-70
2023/05/01 11:20:45;;;;;;;;;;;;;;;25.42;24.62;99246.44;135551;1280;22531;-70
2023/05/01 11:23:47;;;;;;;;;;;;;;;25.15;24.80;99246.30;135330;1280;25240;-70
2023/05/01 11:26:51;;;;;;;;;;;;;;;25.12;25.06;99246.25;135505;1280;22970;-69
2023/05/01 11:30:04;;;;;;;;;;;;;;;25.27;25.07;99240.39;135549;1280;22514;-69
2023/05/01 11:33:07;;;;;;;;;;;;;;;25.28;24.85;99236.56;135551;1280;24362;-69
2023/05/01 11:36:11;;;;;;;;;;;;;;;25.08;25.13;99231.36;135574;1280;22510;-70
2023/05/01 11:39:16;;;;;;;;;;;;;;;25.13;24.80;99233.98;135530;1280;25258;-70
2023/05/01 11:42:18;;;;;;;;;;;;;;;25.28;24.82;99231.58;135541;1262;22535;-71
2023/05/01 11:45:22;;;;;;;;;;;;;;;25.49;25.04;99222.48;135561;1280;22508;-70
2023/05/01 11:48:25;;;;;;;;;;;;;;;25.45;24.37;99223.13;135534;1280;22521;-71
2023/05/01 11:51:29;;;;;;;;;;;;;;;25.61;23.59;99222.53;135518;1279;22528;-72
2023/05/01 11:54:32;;;;;;;;;;;;;;;25.48;23.97;99212.07;135509;1262;24380;-70
2023/05/01 11:57:35;;;;;;;;;;;;;;;25.50;24.15;99209.87;135573;1279;24024;-70
2023/05/01 12:00:38;;;;;;;;;;;;;;;25.67;24.40;99204.12;135535;1279;22508;-71
2023/05/01 12:03:42;;;;;;;;;;;;;;;25.99;24.83;99200.73;131416;1279;5376469;-70
2023/05/01 12:06:48;;;;;;;;;;;;;;;26.38;24.46;99202.85;135438;1279;22504;-69
2023/05/01 12:10:07;;;;;;;;;;;;;;;26.12;24.54;99196.59;135487;1279;24397;-70
2023/05/01 12:13:10;;;;;;;;;;;;;;;25.90;23.89;99199.06;135508;1279;22504;-70
2023/05/01 12:16:14;;;;;;;;;;;;;;;25.57;24.41;99196.52;135533;1279;22619;-70
2023/05/01 12:19:18;;;;;;;;;;;;;;;25.59;23.70;99187.29;135552;1279;22510;-71
2023/05/01 12:22:22;;;;;;;;;;;;;;;25.85;24.47;99181.71;135488;1279;22608;-69
2023/05/01 12:25:25;;;;;;;;;;;;;;;26.15;24.56;99179.45;135317;1279;22532;-71
2023/05/01 12:28:27;;;;;;;;;;;;;;;26.16;24.89;99176.63;135531;1279;22620;-69
2023/05/01 12:31:38;;;;;;;;;;;;;;;26.33;24.59;99169.58;135484;1279;22528;-70
2023/05/01 12:34:41;;;;;;;;;;;;;;;26.62;23.08;99167.09;135474;1262;22504;-69
2023/05/01 12:37:44;;;;;;;;;;;;;;;26.78;23.70;99159.09;135252;1279;22499;-69
2023/05/01 12:40:47;;;;;;;;;;;;;;;26.58;23.48;99150.23;135437;1279;22634;-69
2023/05/01 12:43:50;;;;;;;;;;;;;;;26.19;23.67;99151.53;135256;1263;22507;-70
2023/05/01 12:46:52;;;;;;;;;;;;;;;26.26;24.14;99147.41;135285;1280;22508;-69
2023/05/01 12:49:55;;;;;;;;;;;;;;;26.29;23.33;99143.27;135482;1262;22502;-69
2023/05/01 12:52:59;;;;;;;;;;;;;;;26.09;23.37;99138.41;135530;1280;22517;-70
2023/05/01 12:56:02;;;;;;;;;;;;;;;26.38;22.86;99129.68;135342;1280;24336;-69
2023/05/01 12:59:04;;;;;;;;;;;;;;;26.33;22.73;99128.55;135543;1262;22517;-70
2023/05/01 13:02:07;;;;;;;;;;;;;;;26.43;23.11;99126.09;135576;1280;22513;-70
2023/05/01 13:05:10;;;;;;;;;;;;;;;26.65;22.82;99116.90;135502;1280;22495;-70
2023/05/01 13:08:14;;;;;;;;;;;;;;;26.73;23.36;99119.27;135564;1280;22530;-70
2023/05/01 13:11:21;;;;;;;;;;;;;;;26.89;23.79;99114.08;135535;1280;22559;-71
2023/05/01 13:14:23;;;;;;;;;;;;;;;26.80;23.14;99109.14;135543;1280;22534;-70
2023/05/01 13:17:27;;;;;;;;;;;;;;;26.64;23.03;99108.39;135596;1280;24208;-70
2023/05/01 13:20:31;;;;;;;;;;;;;;;26.58;22.34;99109.23;135564;1280;26548;-71
2023/05/01 13:23:34;;;;;;;;;;;;;;;26.54;23.08;99110.71;135545;1280;22500;-70
2023/05/01 13:26:37;;;;;;;;;;;;;;;26.58;23.34;99114.85;135510;1280;22508;-70
2023/05/01 13:29:40;;;;;;;;;;;;;;;26.55;23.05;99111.26;135554;1280;22524;-70
2023/05/01 13:32:43;;;;;;;;;;;;;;;26.65;23.34;99106.15;135568;1280;22515;-71
2023/05/01 13:35:47;;;;;;;;;;;;;;;26.65;23.10;99103.21;135634;1280;22503;-69
2023/05/01 13:38:52;;;;;;;;;;;;;;;26.77;23.86;99098.39;135589;1280;22531;-72
2023/05/01 13:41:55;;;;;;;;;;;;;;;26.89;23.10;99092.77;135563;1280;23437;-69
2023/05/01 13:44:58;;;;;;;;;;;;;;;27.11;23.45;99086.82;135531;1280;25505;-69
2023/05/01 13:48:02;;;;;;;;;;;;;;;27.13;23.01;99081.67;135511;1280;22500;-69
2023/05/01 13:51:07;;;;;;;;;;;;;;;27.00;22.36;99078.61;135574;1280;22519;-70
2023/05/01 13:54:10;;;;;;;;;;;;;;;27.01;22.95;99079.08;135587;1280;22538;-69
2023/05/01 13:57:14;;;;;;;;;;;;;;;27.05;22.56;99077.63;135628;1280;22500;-70
2023/05/01 14:00:17;;;;;;;;;;;;;;;26.75;23.01;99072.77;135563;1280;25649;-70
2023/05/01 14:03:21;;;;;;;;;;;;;;;26.57;23.31;99065.46;135574;1280;22508;-71
2023/05/01 14:06:24;;;;;;;;;;;;;;;26.60;23.96;99060.95;135568;1280;22506;-71
2023/05/01 14:09:28;;;;;;;;;;;;;;;26.61;23.46;99065.11;135569;1280;22514;-70
2023/05/01 14:12:30;;;;;;;;;;;;;;;26.63;23.25;99063.10;135629;1261;22516;-69
2023/05/01 14:15:35;;;;;;;;;;;;;;;26.70;22.60;99057.98;135585;1280;22702;-69
2023/05/01 14:18:38;;;;;;;;;;;;;;;26.74;22.62;99051.44;135637;1280;22516;-69
2023/05/01 14:21:42;;;;;;;;;;;;;;;26.58;22.83;99052.98;135577;1280;22519;-71
2023/05/01 14:24:44;;;;;;;;;;;;;;;26.61;23.49;99044.74;135575;1280;22526;-70
2023/05/01 14:27:47;;;;;;;;;;;;;;;26.70;22.98;99044.20;135647;1280;22511;-70
2023/05/01 14:30:53;;;;;;;;;;;;;;;26.64;22.57;99045.60;135516;1280;22614;-69
2023/05/01 14:33:57;;;;;;;;;;;;;;;26.60;22.05;99043.98;135491;1280;22500;-70
2023/05/01 14:37:00;;;;;;;;;;;;;;;26.52;22.76;99043.95;135644;1280;22503;-70
2023/05/01 14:40:04;;;;;;;;;;;;;;;26.55;22.38;99042.63;135594;1268;24213;-69
2023/05/01 14:43:07;;;;;;;;;;;;;;;26.50;22.70;99038.59;135586;1280;23015;-68
2023/05/01 14:46:10;;;;;;;;;;;;;;;26.58;22.79;99031.02;135333;1263;22528;-71
2023/05/01 14:49:13;;;;;;;;;;;;;;;26.53;22.84;99029.74;135347;1280;22503;-69
2023/05/01 14:52:17;;;;;;;;;;;;;;;26.64;22.20;99023.92;135595;1280;24242;-69
2023/05/01 14:55:21;;;;;;;;;;;;;;;26.69;22.55;99019.23;135591;1280;22506;-70
2023/05/01 14:58:25;;;;;;;;;;;;;;;26.71;22.81;99019.53;135587;1280;22529;-70
2023/05/01 15:01:29;;;;;;;;;;;;;;;26.67;22.38;99019.62;135578;1280;22510;-70
2023/05/01 15:04:32;;;;;;;;;;;;;;;26.64;22.24;99016.75;135584;1280;22510;-69
2023/05/01 15:07:36;;;;;;;;;;;;;;;26.74;22.18;99015.38;135563;1280;22499;-69
2023/05/01 15:10:40;;;;;;;;;;;;;;;27.20;21.47;99012.59;135541;1280;22517;-70
2023/05/01 15:13:44;;;;;;;;;;;;;;;28.37;21.18;99004.98;135589;1280;22679;-69
2023/05/01 15:16:48;;;;;;;;;;;;;;;29.95;20.68;99001.41;135542;1280;22567;-68
2023/05/01 15:19:52;;;;;;;;;;;;;;;31.32;20.08;98989.80;135552;1280;22521;-68
2023/05/01 15:22:55;;;;;;;;;;;;;;;32.86;19.33;98983.06;135605;1280;24342;-68
2023/05/01 15:25:57;;;;;;;;;;;;;;;33.72;18.87;98985.69;135509;1280;22522;-68
2023/05/01 15:29:00;;;;;;;;;;;;;;;34.44;17.86;98985.11;135521;1280;24180;-68
2023/05/01 15:32:07;;;;;;;;;;;;;;;34.50;17.87;98982.27;135573;1280;24519;-69
2023/05/01 15:35:10;;;;;;;;;;;;;;;35.00;17.62;98975.97;135579;1280;22519;-69
2023/05/01 15:38:12;;;;;;;;;;;;;;;35.87;16.83;98974.79;135618;1280;22516;-67
2023/05/01 15:41:19;;;;;;;;;;;;;;;36.60;16.42;98972.46;135566;1262;22539;-68
2023/05/01 15:44:21;;;;;;;;;;;;;;;37.09;16.38;98967.20;135367;1280;22513;-67
2023/05/01 15:47:24;;;;;;;;;;;;;;;37.75;16.13;98964.73;135590;1280;22542;-68